createdAt,value
2022-11-07T00:00:39.561Z,75.50
2022-11-07T00:03:06.379Z,75.39
2022-11-07T00:05:33.167Z,75.94
2022-11-07T00:07:59.896Z,75.71
2022-11-07T00:10:26.953Z,75.79
2022-11-07T00:12:53.824Z,75.19
2022-11-07T00:15:20.604Z,75.17
2022-11-07T00:17:47.237Z,75.62
2022-11-07T00:20:13.996Z,74.93
2022-11-07T00:22:40.657Z,75.44
2022-11-07T00:25:07.802Z,75.20
2022-11-07T00:27:34.531Z,75.07
2022-11-07T00:30:01.349Z,75.37
2022-11-07T00:32:28.088Z,75.05
2022-11-07T00:34:54.804Z,74.77
2022-11-07T00:37:21.557Z,75.25
2022-11-07T00:39:48.262Z,76.00
2022-11-07T00:42:15.958Z,75.43
2022-11-07T00:44:46.016Z,75.80
2022-11-07T00:47:12.831Z,75.30
2022-11-07T00:49:39.508Z,75.62
2022-11-07T00:52:06.207Z,76.08
2022-11-07T00:54:32.837Z,75.88
2022-11-07T00:57:00.523Z,75.78
2022-11-07T00:59:27.252Z,75.42
2022-11-07T01:01:54.474Z,75.39
2022-11-07T01:04:40.102Z,75.68
2022-11-07T01:07:07.068Z,75.79
2022-11-07T01:09:33.685Z,75.76
2022-11-07T01:12:00.447Z,76.26
2022-11-07T01:14:27.139Z,76.47
2022-11-07T01:16:53.792Z,76.06
2022-11-07T01:19:20.893Z,76.72
2022-11-07T01:21:47.723Z,76.81
2022-11-07T01:24:16.300Z,76.25
2022-11-07T01:26:44.650Z,76.41
2022-11-07T01:29:11.372Z,77.51
2022-11-07T01:31:38.056Z,77.29
2022-11-07T01:34:05.351Z,76.86
2022-11-07T01:36:32.661Z,76.78
2022-11-07T01:38:59.566Z,77.00
2022-11-07T01:41:30.084Z,77.47
2022-11-07T01:44:08.903Z,76.38
2022-11-07T01:46:41.187Z,76.43
2022-11-07T01:49:11.047Z,76.77
2022-11-07T01:52:00.902Z,76.39
2022-11-07T01:54:32.887Z,76.62
2022-11-07T01:57:03.631Z,76.65
2022-11-07T01:59:32.293Z,76.76
2022-11-07T02:01:59.303Z,76.90
2022-11-07T02:04:29.681Z,76.73
2022-11-07T02:07:11.794Z,76.42
2022-11-07T02:09:38.591Z,76.67
2022-11-07T02:12:05.648Z,76.87
2022-11-07T02:14:32.307Z,77.08
2022-11-07T02:17:00.520Z,77.17
2022-11-07T02:19:47.616Z,77.41
2022-11-07T02:22:23.343Z,77.50
2022-11-07T02:24:53.877Z,76.96
2022-11-07T02:27:24.910Z,76.94
2022-11-07T02:29:57.616Z,77.66
2022-11-07T02:32:24.377Z,77.91
2022-11-07T02:35:03.991Z,78.53
2022-11-07T02:37:35.833Z,78.07
2022-11-07T02:40:08.354Z,78.50
2022-11-07T02:42:43.881Z,78.45
2022-11-07T02:45:16.612Z,78.45
2022-11-07T02:47:43.212Z,78.55
2022-11-07T02:50:11.975Z,78.40
2022-11-07T02:52:39.261Z,77.84
2022-11-07T02:55:07.878Z,78.07
2022-11-07T02:57:34.717Z,77.48
2022-11-07T03:00:01.974Z,77.49
2022-11-07T03:02:29.018Z,77.72
2022-11-07T03:04:55.823Z,76.57
2022-11-07T03:07:22.524Z,76.73
2022-11-07T03:09:49.137Z,76.94
2022-11-07T03:12:16.627Z,76.54
2022-11-07T03:14:43.262Z,76.69
2022-11-07T03:17:09.978Z,77.06
2022-11-07T03:19:36.725Z,76.88
2022-11-07T03:22:03.702Z,76.62
2022-11-07T03:24:32.423Z,76.54
2022-11-07T03:26:59.601Z,76.40
2022-11-07T03:29:26.254Z,76.53
2022-11-07T03:31:53.246Z,77.11
2022-11-07T03:34:19.925Z,77.10
2022-11-07T03:36:46.559Z,76.78
2022-11-07T03:39:13.166Z,76.77
2022-11-07T03:41:39.958Z,76.50
2022-11-07T03:44:06.806Z,76.47
2022-11-07T03:46:33.683Z,76.45
2022-11-07T03:49:00.420Z,76.34
2022-11-07T03:51:27.107Z,76.12
2022-11-07T03:53:53.744Z,76.17
2022-11-07T03:56:20.433Z,76.96
2022-11-07T03:58:47.380Z,76.75
2022-11-07T04:01:14.243Z,77.14
2022-11-07T04:03:40.999Z,77.17
2022-11-07T04:06:07.967Z,77.34
2022-11-07T04:08:34.671Z,77.60
2022-11-07T04:11:01.439Z,76.58
2022-11-07T04:13:46.674Z,77.54
2022-11-07T04:16:32.440Z,77.35
2022-11-07T04:19:01.594Z,76.61
2022-11-07T04:21:28.223Z,76.71
2022-11-07T04:23:55.093Z,76.66
2022-11-07T04:26:40.530Z,76.91
2022-11-07T04:29:07.239Z,77.54
2022-11-07T04:31:33.817Z,77.33
2022-11-07T04:34:00.407Z,77.34
2022-11-07T04:36:27.076Z,77.36
2022-11-07T04:38:53.731Z,76.95
2022-11-07T04:41:24.654Z,77.87
2022-11-07T04:43:51.895Z,77.91
2022-11-07T04:46:18.533Z,77.22
2022-11-07T04:48:45.373Z,77.61
2022-11-07T04:51:19.119Z,77.52
2022-11-07T04:53:45.749Z,77.61
2022-11-07T04:56:12.486Z,77.71
2022-11-07T04:58:39.280Z,76.87
2022-11-07T05:01:05.985Z,77.17
2022-11-07T05:03:36.212Z,77.17
2022-11-07T05:06:06.134Z,77.56
2022-11-07T05:08:33.316Z,77.05
2022-11-07T05:10:59.961Z,77.09
2022-11-07T05:13:26.716Z,77.53
2022-11-07T05:15:53.540Z,77.29
2022-11-07T05:18:21.442Z,76.91
2022-11-07T05:20:48.225Z,77.31
2022-11-07T05:23:24.228Z,76.85
2022-11-07T05:25:54.995Z,77.30
2022-11-07T05:28:33.581Z,76.93
2022-11-07T05:31:04.579Z,77.74
2022-11-07T05:33:31.267Z,77.17
2022-11-07T05:35:57.961Z,77.14
2022-11-07T05:38:25.017Z,77.21
2022-11-07T05:40:51.599Z,77.82
2022-11-07T05:43:18.377Z,77.22
2022-11-07T05:45:45.261Z,76.91
2022-11-07T05:48:13.703Z,76.90
2022-11-07T05:50:41.319Z,76.83
2022-11-07T05:53:09.218Z,77.43
2022-11-07T05:55:36.033Z,76.50
2022-11-07T05:58:08.655Z,76.77
2022-11-07T06:00:35.435Z,77.27
2022-11-07T06:03:02.334Z,76.89
2022-11-07T06:05:29.810Z,77.17
2022-11-07T06:07:56.479Z,77.25
2022-11-07T06:10:24.696Z,77.96
2022-11-07T06:13:02.764Z,77.86
2022-11-07T06:15:31.180Z,77.71
2022-11-07T06:18:05.308Z,77.35
2022-11-07T06:20:32.157Z,77.65
2022-11-07T06:22:59.920Z,77.47
2022-11-07T06:25:27.693Z,77.27
2022-11-07T06:27:59.708Z,77.68
2022-11-07T06:30:26.634Z,77.25
2022-11-07T06:32:53.575Z,78.35
2022-11-07T06:35:20.226Z,77.65
2022-11-07T06:37:46.868Z,77.22
2022-11-07T06:40:14.152Z,77.46
2022-11-07T06:42:40.815Z,77.37
2022-11-07T06:45:07.886Z,76.92
2022-11-07T06:47:34.679Z,77.11
2022-11-07T06:50:01.313Z,77.23
2022-11-07T06:52:28.513Z,77.74
2022-11-07T06:54:55.511Z,77.52
2022-11-07T06:57:22.159Z,77.17
2022-11-07T06:59:51.884Z,76.87
2022-11-07T07:02:43.835Z,77.02
2022-11-07T07:05:06.087Z,76.52
2022-11-07T07:07:33.062Z,76.88
2022-11-07T07:09:59.673Z,76.72
2022-11-07T07:12:26.599Z,77.42
2022-11-07T07:14:53.802Z,77.13
2022-11-07T07:17:20.419Z,76.81
2022-11-07T07:19:47.072Z,76.61
2022-11-07T07:22:14.267Z,76.39
2022-11-07T07:24:40.967Z,76.57
2022-11-07T07:27:07.747Z,76.48
2022-11-07T07:29:34.440Z,76.65
2022-11-07T07:32:01.134Z,76.75
2022-11-07T07:34:27.826Z,75.98
2022-11-07T07:36:54.673Z,76.11
2022-11-07T07:39:21.299Z,75.72
2022-11-07T07:41:50.115Z,75.79
2022-11-07T07:44:17.043Z,75.20
2022-11-07T07:46:43.661Z,74.37
2022-11-07T07:49:10.309Z,74.73
2022-11-07T07:51:37.003Z,74.29
2022-11-07T07:54:03.727Z,74.44
2022-11-07T07:56:30.434Z,74.00
2022-11-07T07:58:57.113Z,74.56
2022-11-07T08:01:23.865Z,74.15
2022-11-07T08:04:01.204Z,73.92
2022-11-07T08:06:29.888Z,73.17
2022-11-07T08:08:56.680Z,73.36
2022-11-07T08:11:23.518Z,73.16
2022-11-07T08:13:50.318Z,72.77
2022-11-07T08:16:16.990Z,73.32
2022-11-07T08:18:43.630Z,72.70
2022-11-07T08:21:10.828Z,73.31
2022-11-07T08:23:38.094Z,73.03
2022-11-07T08:26:05.280Z,73.28
2022-11-07T08:28:34.783Z,72.88
2022-11-07T08:31:05.171Z,73.30
2022-11-07T08:33:32.559Z,73.13
2022-11-07T08:36:01.031Z,73.10
2022-11-07T08:38:28.387Z,72.63
2022-11-07T08:40:55.802Z,73.71
2022-11-07T08:43:22.772Z,72.45
2022-11-07T08:45:50.268Z,72.53
2022-11-07T08:48:17.476Z,72.64
2022-11-07T08:50:44.529Z,71.98
2022-11-07T08:53:12.301Z,72.64
2022-11-07T08:55:39.055Z,72.42
2022-11-07T08:58:07.845Z,72.04
2022-11-07T09:00:36.111Z,72.85
2022-11-07T09:05:51.439Z,72.27
2022-11-07T09:08:18.757Z,72.02
2022-11-07T09:10:45.578Z,72.65
2022-11-07T09:13:14.985Z,71.97
2022-11-07T09:15:46.293Z,72.73
2022-11-07T09:18:17.152Z,72.67
2022-11-07T09:20:43.809Z,72.10
2022-11-07T09:23:10.645Z,72.84
2022-11-07T09:25:37.272Z,72.13
2022-11-07T09:28:04.274Z,71.97
2022-11-07T09:30:31.213Z,70.51
2022-11-07T09:32:57.984Z,69.82
2022-11-07T09:35:24.751Z,69.42
2022-11-07T09:37:51.919Z,69.58
2022-11-07T09:40:24.837Z,68.92
2022-11-07T09:43:08.322Z,69.91
2022-11-07T09:45:49.751Z,69.56
2022-11-07T09:48:23.497Z,67.79
2022-11-07T09:50:51.785Z,68.01
2022-11-07T09:53:28.464Z,69.27
2022-11-07T09:55:59.555Z,69.61
2022-11-07T09:58:27.656Z,69.96
2022-11-07T10:01:00.004Z,69.74
2022-11-07T10:03:26.762Z,69.19
2022-11-07T10:06:25.011Z,69.00
2022-11-07T10:08:54.267Z,69.41
2022-11-07T10:11:50.350Z,69.54
2022-11-07T10:14:44.619Z,69.84
2022-11-07T10:17:26.747Z,68.79
2022-11-07T10:20:29.899Z,69.45
2022-11-07T10:23:28.389Z,69.00
2022-11-07T10:26:12.483Z,68.90
2022-11-07T10:28:53.442Z,68.94
2022-11-07T10:31:20.446Z,68.61
2022-11-07T10:34:01.100Z,66.84
2022-11-07T10:36:30.910Z,67.62
2022-11-07T10:38:58.163Z,68.16
2022-11-07T10:41:27.229Z,68.52
2022-11-07T10:44:03.490Z,68.82
2022-11-07T10:46:40.730Z,68.09
2022-11-07T10:49:33.795Z,67.77
2022-11-07T10:52:09.175Z,68.00
2022-11-07T10:54:36.062Z,67.85
2022-11-07T10:57:07.205Z,67.89
2022-11-07T10:59:37.093Z,67.67
2022-11-07T11:02:19.885Z,67.44
2022-11-07T11:04:54.201Z,67.58
2022-11-07T11:07:28.428Z,68.27
2022-11-07T11:09:58.102Z,68.88
2022-11-07T11:12:34.331Z,69.08
2022-11-07T11:15:16.402Z,69.45
2022-11-07T11:17:44.717Z,69.34
2022-11-07T11:20:45.210Z,69.62
2022-11-07T11:23:21.234Z,69.21
2022-11-07T11:25:50.446Z,69.31
2022-11-07T11:28:30.164Z,69.63
2022-11-07T11:31:06.768Z,69.37
2022-11-07T11:33:51.225Z,69.48
2022-11-07T11:36:27.824Z,69.69
2022-11-07T11:38:55.267Z,69.79
2022-11-07T11:41:31.101Z,70.34
2022-11-07T11:44:00.388Z,69.88
2022-11-07T11:46:30.175Z,70.75
2022-11-07T11:48:57.864Z,70.44
2022-11-07T11:51:27.184Z,70.43
2022-11-07T11:53:54.021Z,70.07
2022-11-07T11:56:34.208Z,70.29
2022-11-07T11:59:23.608Z,70.49
2022-11-07T12:02:25.528Z,70.43
2022-11-07T12:05:06.790Z,69.61
2022-11-07T12:07:50.961Z,69.77
2022-11-07T12:10:56.290Z,70.56
2022-11-07T12:13:29.011Z,70.77
2022-11-07T12:16:19.496Z,71.21
2022-11-07T12:18:48.906Z,71.46
2022-11-07T12:21:44.643Z,71.52
2022-11-07T12:24:23.224Z,71.13
2022-11-07T12:26:58.662Z,71.85
2022-11-07T12:29:41.405Z,71.55
2022-11-07T12:32:13.951Z,71.59
2022-11-07T12:34:40.521Z,72.27
2022-11-07T12:37:40.784Z,71.82
2022-11-07T12:40:36.168Z,71.73
2022-11-07T12:43:15.344Z,71.50
2022-11-07T12:45:54.284Z,70.36
2022-11-07T12:48:23.754Z,70.25
2022-11-07T12:50:59.198Z,70.54
2022-11-07T12:53:43.325Z,71.27
2022-11-07T12:56:20.259Z,71.42
2022-11-07T12:58:48.822Z,71.75
2022-11-07T13:01:22.307Z,71.61
2022-11-07T13:04:06.135Z,71.35
2022-11-07T13:06:43.930Z,72.00
2022-11-07T13:09:33.789Z,71.76
2022-11-07T13:12:22.846Z,71.65
2022-11-07T13:14:50.275Z,72.32
2022-11-07T13:17:27.768Z,73.16
2022-11-07T13:20:06.251Z,72.45
2022-11-07T13:22:37.110Z,72.06
2022-11-07T13:25:17.201Z,72.17
2022-11-07T13:27:56.205Z,72.45
2022-11-07T13:30:31.495Z,71.68
2022-11-07T13:32:59.208Z,72.54
2022-11-07T13:35:30.124Z,72.73
2022-11-07T13:38:11.444Z,72.65
2022-11-07T13:40:44.085Z,73.38
2022-11-07T13:43:29.245Z,72.91
2022-11-07T13:46:02.404Z,72.82
2022-11-07T13:48:36.670Z,73.14
2022-11-07T13:51:12.654Z,72.51
2022-11-07T13:53:46.841Z,73.66
2022-11-07T13:56:22.175Z,72.69
2022-11-07T13:58:50.475Z,72.74
2022-11-07T14:01:17.329Z,72.40
2022-11-07T14:03:44.002Z,72.49
2022-11-07T14:06:16.164Z,72.05
2022-11-07T14:08:47.567Z,72.70
2022-11-07T14:11:23.231Z,73.04
2022-11-07T14:13:53.740Z,73.06
2022-11-07T14:16:25.058Z,73.17
2022-11-07T14:18:57.157Z,73.13
2022-11-07T14:21:28.033Z,73.48
2022-11-07T14:23:54.733Z,72.57
2022-11-07T14:26:43.695Z,72.72
2022-11-07T14:29:21.743Z,73.32
2022-11-07T14:31:48.538Z,72.89
2022-11-07T14:34:20.996Z,73.37
2022-11-07T14:37:02.168Z,73.39
2022-11-07T14:39:32.305Z,72.92
2022-11-07T14:42:02.552Z,72.97
2022-11-07T14:44:53.919Z,72.52
2022-11-07T14:47:25.842Z,72.07
2022-11-07T14:49:54.484Z,72.45
2022-11-07T14:52:33.062Z,72.32
2022-11-07T14:55:21.257Z,71.84
2022-11-07T14:57:48.859Z,72.45
2022-11-07T15:00:19.276Z,72.12
2022-11-07T15:02:49.543Z,71.81
2022-11-07T15:05:27.153Z,72.80
2022-11-07T15:07:55.056Z,72.60
2022-11-07T15:10:26.546Z,72.17
2022-11-07T15:12:59.478Z,72.19
2022-11-07T15:15:35.284Z,72.68
2022-11-07T15:18:03.073Z,73.11
2022-11-07T15:20:34.066Z,72.52
2022-11-07T15:23:03.913Z,72.93
2022-11-07T15:25:39.616Z,72.28
2022-11-07T15:28:18.884Z,72.39
2022-11-07T15:30:47.228Z,72.68
2022-11-07T15:33:19.516Z,72.54
2022-11-07T15:35:52.850Z,72.60
2022-11-07T15:38:22.559Z,72.28
2022-11-07T15:40:53.452Z,72.43
2022-11-07T15:43:20.859Z,72.02
2022-11-07T15:45:55.312Z,71.95
2022-11-07T15:48:26.489Z,72.34
2022-11-07T15:50:54.560Z,71.51
2022-11-07T15:53:24.118Z,72.42
2022-11-07T15:55:57.279Z,72.38
2022-11-07T15:58:27.519Z,72.46
2022-11-07T16:00:55.094Z,72.35
2022-11-07T16:03:24.843Z,73.04
2022-11-07T16:05:54.964Z,72.21
2022-11-07T16:08:24.325Z,72.46
2022-11-07T16:10:59.007Z,73.36
2022-11-07T16:13:25.894Z,73.25
2022-11-07T16:15:57.210Z,73.12
2022-11-07T16:18:27.303Z,73.29
2022-11-07T16:21:05.054Z,73.02
2022-11-07T16:23:34.436Z,72.54
2022-11-07T16:26:01.696Z,72.83
2022-11-07T16:28:31.823Z,72.42
2022-11-07T16:31:00.000Z,72.17
2022-11-07T16:33:29.182Z,72.66
2022-11-07T16:36:02.970Z,72.85
2022-11-07T16:38:35.449Z,73.41
2022-11-07T16:41:08.662Z,73.98
2022-11-07T16:43:37.682Z,73.12
2022-11-07T16:46:05.454Z,73.41
2022-11-07T16:48:32.553Z,73.79
2022-11-07T16:50:59.494Z,73.38
2022-11-07T16:53:26.601Z,72.98
2022-11-07T16:55:55.197Z,72.42
2022-11-07T16:58:30.739Z,72.30
2022-11-07T17:01:05.339Z,72.96
2022-11-07T17:03:33.051Z,72.67
2022-11-07T17:06:02.081Z,72.90
2022-11-07T17:08:47.129Z,72.50
2022-11-07T17:11:16.048Z,73.37
2022-11-07T17:13:43.090Z,73.33
2022-11-07T17:16:19.472Z,73.11
2022-11-07T17:18:47.515Z,72.44
2022-11-07T17:21:24.607Z,73.29
2022-11-07T17:23:52.646Z,73.27
2022-11-07T17:26:22.174Z,73.93
2022-11-07T17:28:50.042Z,74.00
2022-11-07T17:31:17.287Z,73.57
2022-11-07T17:33:44.229Z,74.04
2022-11-07T17:36:37.151Z,73.96
2022-11-07T17:39:12.095Z,73.35
2022-11-07T17:41:43.652Z,73.78
2022-11-07T17:44:11.926Z,73.74
2022-11-07T17:46:44.349Z,73.23
2022-11-07T17:49:13.860Z,74.14
2022-11-07T17:51:42.108Z,73.93
2022-11-07T17:54:13.333Z,73.54
2022-11-07T17:56:41.295Z,74.13
2022-11-07T17:59:13.284Z,74.27
2022-11-07T18:01:40.781Z,74.50
2022-11-07T18:04:09.561Z,74.35
2022-11-07T18:06:42.005Z,74.85
2022-11-07T18:09:14.563Z,74.63
2022-11-07T18:11:41.833Z,75.62
2022-11-07T18:14:11.100Z,76.40
2022-11-07T18:16:37.833Z,76.99
2022-11-07T18:19:05.644Z,76.87
2022-11-07T18:21:32.960Z,78.01
2022-11-07T18:23:59.692Z,76.34
2022-11-07T18:26:33.956Z,76.64
2022-11-07T18:29:03.585Z,76.98
2022-11-07T18:31:30.248Z,77.27
2022-11-07T18:34:03.096Z,77.53
2022-11-07T18:36:31.080Z,76.69
2022-11-07T18:39:22.476Z,76.79
2022-11-07T18:41:50.267Z,76.86
2022-11-07T18:44:16.964Z,77.12
2022-11-07T18:46:44.430Z,77.05
2022-11-07T18:49:14.211Z,77.51
2022-11-07T18:51:42.900Z,77.25
2022-11-07T18:54:10.768Z,76.61
2022-11-07T18:56:37.488Z,76.27
2022-11-07T18:59:10.367Z,75.77
2022-11-07T19:01:37.240Z,76.13
2022-11-07T19:04:05.918Z,76.14
2022-11-07T19:06:33.249Z,76.08
2022-11-07T19:09:00.626Z,76.36
2022-11-07T19:11:29.582Z,76.62
2022-11-07T19:13:59.889Z,75.97
2022-11-07T19:16:26.711Z,74.93
2022-11-07T19:18:53.366Z,74.57
2022-11-07T19:21:21.745Z,74.37
2022-11-07T19:23:50.312Z,73.71
2022-11-07T19:26:19.356Z,74.02
2022-11-07T19:28:46.990Z,74.15
2022-11-07T19:31:14.388Z,73.63
2022-11-07T19:33:42.146Z,73.82
2022-11-07T19:36:14.145Z,73.26
2022-11-07T19:38:40.836Z,73.51
2022-11-07T19:41:09.052Z,72.83
2022-11-07T19:43:36.475Z,73.54
2022-11-07T19:46:08.597Z,72.98
2022-11-07T19:48:35.515Z,73.37
2022-11-07T19:51:11.343Z,73.44
2022-11-07T19:53:46.784Z,72.87
2022-11-07T19:56:18.328Z,72.74
2022-11-07T19:58:50.903Z,72.40
2022-11-07T20:01:40.717Z,72.77
2022-11-07T20:04:14.477Z,72.79
2022-11-07T20:06:43.668Z,72.17
2022-11-07T20:09:13.079Z,72.91
2022-11-07T20:11:39.846Z,72.35
2022-11-07T20:14:06.786Z,73.21
2022-11-07T20:16:34.008Z,72.77
2022-11-07T20:19:01.769Z,72.48
2022-11-07T20:21:29.389Z,73.15
2022-11-07T20:23:58.157Z,72.19
2022-11-07T20:26:26.549Z,72.65
2022-11-07T20:28:53.717Z,72.13
2022-11-07T20:31:24.215Z,72.57
2022-11-07T20:33:52.388Z,73.07
2022-11-07T20:36:19.975Z,72.47
2022-11-07T20:38:46.944Z,72.81
2022-11-07T20:41:14.309Z,72.70
2022-11-07T20:43:43.902Z,72.69
2022-11-07T20:46:14.833Z,72.49
2022-11-07T20:48:42.602Z,73.10
2022-11-07T20:51:11.441Z,72.34
2022-11-07T20:53:39.154Z,72.50
2022-11-07T20:56:07.003Z,72.77
2022-11-07T20:58:35.692Z,72.19
2022-11-07T21:01:03.841Z,72.83
2022-11-07T21:03:32.357Z,72.47
2022-11-07T21:05:59.351Z,72.71
2022-11-07T21:08:26.488Z,72.42
2022-11-07T21:10:53.703Z,72.76
2022-11-07T21:13:20.498Z,72.74
2022-11-07T21:15:50.707Z,72.96
2022-11-07T21:18:18.472Z,72.66
2022-11-07T21:20:45.235Z,73.48
2022-11-07T21:23:12.532Z,74.09
2022-11-07T21:25:43.048Z,73.61
2022-11-07T21:28:11.452Z,72.67
2022-11-07T21:30:39.308Z,72.83
2022-11-07T21:33:32.956Z,72.87
2022-11-07T21:36:00.031Z,72.93
2022-11-07T21:38:26.940Z,73.58
2022-11-07T21:40:54.035Z,73.13
2022-11-07T21:43:20.723Z,73.15
2022-11-07T21:45:47.599Z,73.63
2022-11-07T21:48:14.279Z,73.88
2022-11-07T21:50:45.498Z,73.63
2022-11-07T21:53:12.620Z,74.35
2022-11-07T21:55:39.470Z,74.84
2022-11-07T21:58:06.079Z,75.00
2022-11-07T22:00:36.578Z,75.66
2022-11-07T22:03:04.545Z,75.28
2022-11-07T22:05:31.185Z,75.92
2022-11-07T22:07:58.141Z,75.51
2022-11-07T22:10:24.868Z,75.32
2022-11-07T22:12:52.498Z,75.79
2022-11-07T22:15:19.107Z,75.58
2022-11-07T22:17:45.849Z,75.50
2022-11-07T22:20:13.058Z,74.65
2022-11-07T22:22:40.262Z,74.94
2022-11-07T22:25:07.338Z,75.03
2022-11-07T22:27:34.087Z,75.03
2022-11-07T22:30:00.787Z,74.91
2022-11-07T22:32:27.598Z,74.76
2022-11-07T22:34:54.245Z,75.35
2022-11-07T22:37:20.981Z,75.79
2022-11-07T22:39:47.784Z,76.11
2022-11-07T22:42:17.341Z,76.66
2022-11-07T22:44:46.540Z,76.38
2022-11-07T22:47:13.217Z,76.23
2022-11-07T22:49:39.934Z,76.24
2022-11-07T22:52:06.560Z,76.60
2022-11-07T22:54:33.352Z,76.49
2022-11-07T22:57:00.073Z,77.13
2022-11-07T22:59:26.974Z,77.18
2022-11-07T23:01:53.700Z,77.08
2022-11-07T23:04:20.401Z,76.96
2022-11-07T23:06:47.034Z,76.68
2022-11-07T23:09:15.596Z,77.44
2022-11-07T23:11:47.928Z,76.95
2022-11-07T23:14:18.752Z,77.78
2022-11-07T23:16:48.312Z,78.42
2022-11-07T23:19:17.495Z,78.34
2022-11-07T23:21:44.525Z,79.30
2022-11-07T23:24:13.387Z,79.58
2022-11-07T23:26:40.493Z,79.57
2022-11-07T23:29:13.442Z,79.57
2022-11-07T23:31:45.513Z,79.19
2022-11-07T23:34:13.087Z,79.19
2022-11-07T23:36:44.766Z,79.88
2022-11-07T23:39:17.458Z,79.41
2022-11-07T23:41:45.005Z,79.85
2022-11-07T23:44:13.402Z,79.66
2022-11-07T23:46:58.775Z,80.44
2022-11-07T23:50:00.967Z,80.71
2022-11-07T23:52:27.616Z,81.13
2022-11-07T23:55:12.771Z,81.23
2022-11-07T23:57:57.835Z,82.11
